Airfield :
LOGIN :

Register | Disclaimer

   EN    FR    IT 

 










Legend :    VFR   Marginal VFR   IFR   Intensive IFR   Very Intensive IFR
Visi :
Ceiling :
>= 8 km
>= 3000ft
5 to 8 km
1000 to 3000 ft
1500m to 5 km
500 to 1000 ft
800 to 1500m
200 to 500 ft
< 800m
< 200 ft
Symbols :   Thunderstorms  Fog  Heavy snow  Heavy precipitations  Wind > 20 kt
SIGMETs :     Misc.  Thunderstorms  Icing  Turbulence  Mountain Waves  Volcanic Ashes







- Airport Elevation : 425 ft
- IATA code : DTM


EDLW - Dortmund

CURRENT METAR :
  • 221050Z 24013KT 220V280 9999 BKN040 17/08 Q1019

EXPIRED METARs :
  • 221020Z 24013KT 210V270 9999 FEW034 15/08 Q1019
  • 220950Z 24013KT 9999 FEW027 SCT032 15/08 Q1020
  • 220920Z 23013KT 200V270 9999 FEW025 15/09 Q1020
  • 220850Z 22014KT CAVOK 14/08 Q1020
  • 220820Z 21011KT CAVOK 13/09 Q1020

TAF TAF EDLW
Valid from the 22 at 06:00 until the 23 at 06:00 UTC


220500Z 2206/2306 22013KT 9999 SCT030
BECMG 2208/2211 24015G25KT
BECMG 2216/2219 22006KT
BECMG 2223/2302 16006KT
BECMG 2303/2306 10005KT
No reported NOTAMs for that airfield.



MET'MAP, your aeronautical weather chart ! - Copyright ORBIFLY December 2007 - Disclaimer

ORBIFLY MET'MAP TEAM :

Programming & Development : Alexandra Zaïnal
Concept & Development : Baudouin d'Aumeries
Co-Development & Prog : Marc-Olivier Méhu
Technical & hardware support : Manuel Goepfert

Contact : metmap@orbifly.com




SOURCES & CREDITS :

   NOAA